createdAt,value
2018-07-24T00:00:28.695Z,20.64
2018-07-24T00:02:57.424Z,20.66
2018-07-24T00:05:26.233Z,20.76
2018-07-24T00:07:54.953Z,20.82
2018-07-24T00:10:23.680Z,20.78
2018-07-24T00:12:52.504Z,20.76
2018-07-24T00:15:21.269Z,20.71
2018-07-24T00:17:49.978Z,20.64
2018-07-24T00:20:18.709Z,20.61
2018-07-24T00:22:47.408Z,20.58
2018-07-24T00:25:16.121Z,20.65
2018-07-24T00:27:44.828Z,20.81
2018-07-24T00:30:13.536Z,20.81
2018-07-24T00:32:42.364Z,20.81
2018-07-24T00:35:11.061Z,20.87
2018-07-24T00:37:39.769Z,20.88
2018-07-24T00:40:08.472Z,20.94
2018-07-24T00:42:37.219Z,20.99
2018-07-24T00:45:05.968Z,20.69
2018-07-24T00:47:34.743Z,20.98
2018-07-24T00:50:03.522Z,20.94
2018-07-24T00:52:32.246Z,20.81
2018-07-24T00:55:00.944Z,20.84
2018-07-24T00:57:29.713Z,20.78
2018-07-24T00:59:58.456Z,20.74
2018-07-24T01:02:27.247Z,20.83
2018-07-24T01:04:55.949Z,20.81
2018-07-24T01:07:24.740Z,20.80
2018-07-24T01:09:53.947Z,20.69
2018-07-24T01:12:23.205Z,20.64
2018-07-24T01:14:52.457Z,20.53
2018-07-24T01:17:21.620Z,20.58
2018-07-24T01:19:50.913Z,20.58
2018-07-24T01:22:20.141Z,20.54
2018-07-24T01:24:48.858Z,20.56
2018-07-24T01:27:17.629Z,20.39
2018-07-24T01:29:46.323Z,20.39
2018-07-24T01:32:15.135Z,20.43
2018-07-24T01:34:43.861Z,20.38
2018-07-24T01:37:12.557Z,20.36
2018-07-24T01:39:41.737Z,20.40
2018-07-24T01:42:11.029Z,20.40
2018-07-24T01:44:39.992Z,20.44
2018-07-24T01:47:09.333Z,20.55
2018-07-24T01:49:38.090Z,20.60
2018-07-24T01:52:06.870Z,20.68
2018-07-24T01:54:35.600Z,20.66
2018-07-24T01:57:04.296Z,20.71
2018-07-24T01:59:33.037Z,20.71
2018-07-24T02:02:01.730Z,20.66
2018-07-24T02:04:30.441Z,20.61
2018-07-24T02:06:59.136Z,20.63
2018-07-24T02:09:27.989Z,20.62
2018-07-24T02:11:56.718Z,20.57
2018-07-24T02:14:25.426Z,20.54
2018-07-24T02:16:54.142Z,20.47
2018-07-24T02:19:22.866Z,20.52
2018-07-24T02:21:51.582Z,20.54
2018-07-24T02:24:20.304Z,20.56
2018-07-24T02:26:49.108Z,20.57
2018-07-24T02:29:17.809Z,20.57
2018-07-24T02:31:46.573Z,20.56
2018-07-24T02:34:15.235Z,20.56
2018-07-24T02:36:43.987Z,20.64
2018-07-24T02:39:14.292Z,20.65
2018-07-24T02:41:43.031Z,20.56
2018-07-24T02:44:11.779Z,20.60
2018-07-24T02:46:40.460Z,20.59
2018-07-24T02:49:09.174Z,20.55
2018-07-24T02:51:37.877Z,20.56
2018-07-24T02:54:06.622Z,20.58
2018-07-24T02:56:35.316Z,20.45
2018-07-24T02:59:04.114Z,20.44
2018-07-24T03:01:33.237Z,20.46
2018-07-24T03:04:01.973Z,20.52
2018-07-24T03:06:30.715Z,20.50
2018-07-24T03:08:59.449Z,20.58
2018-07-24T03:11:28.171Z,20.57
2018-07-24T03:13:57.446Z,20.67
2018-07-24T03:16:26.933Z,20.76
2018-07-24T03:18:55.700Z,20.93
2018-07-24T03:21:24.462Z,20.99
2018-07-24T03:23:53.186Z,20.99
2018-07-24T03:26:22.090Z,21.11
2018-07-24T03:28:51.472Z,21.13
2018-07-24T03:31:21.052Z,21.14
2018-07-24T03:33:49.776Z,21.20
2018-07-24T03:36:18.541Z,21.19
2018-07-24T03:38:47.264Z,21.22
2018-07-24T03:41:16.063Z,20.99
2018-07-24T03:43:44.773Z,21.47
2018-07-24T03:46:13.518Z,21.62
2018-07-24T03:48:42.260Z,21.89
2018-07-24T03:51:10.975Z,22.07
2018-07-24T03:53:39.704Z,22.21
2018-07-24T03:56:08.570Z,22.39
2018-07-24T03:58:37.355Z,22.56
2018-07-24T04:01:06.133Z,22.70
2018-07-24T04:03:34.832Z,22.73
2018-07-24T04:06:03.518Z,22.65
2018-07-24T04:08:32.253Z,22.54
2018-07-24T04:11:00.978Z,22.48
2018-07-24T04:13:29.806Z,22.51
2018-07-24T04:15:58.518Z,22.55
2018-07-24T04:18:27.238Z,22.61
2018-07-24T04:20:56.206Z,22.66
2018-07-24T04:23:25.361Z,22.67
2018-07-24T04:25:54.560Z,22.48
2018-07-24T04:28:23.552Z,22.51
2018-07-24T04:30:52.618Z,22.51
2018-07-24T04:33:21.347Z,22.61
2018-07-24T04:35:50.238Z,22.63
2018-07-24T04:38:18.942Z,22.52
2018-07-24T04:40:48.223Z,22.88
2018-07-24T04:43:17.048Z,23.29
2018-07-24T04:45:45.793Z,23.69
2018-07-24T04:48:14.495Z,24.11
2018-07-24T04:50:43.225Z,24.41
2018-07-24T04:53:11.949Z,24.71
2018-07-24T04:55:40.674Z,24.83
2018-07-24T04:58:09.878Z,24.85
2018-07-24T05:00:39.048Z,24.81
2018-07-24T05:03:08.245Z,24.93
2018-07-24T05:05:37.513Z,25.02
2018-07-24T05:08:06.753Z,24.75
2018-07-24T05:10:36.041Z,24.90
2018-07-24T05:13:05.240Z,25.23
2018-07-24T05:15:34.469Z,25.71
2018-07-24T05:18:03.643Z,27.31
2018-07-24T05:20:32.834Z,29.91
2018-07-24T05:23:02.085Z,31.76
2018-07-24T05:25:30.805Z,31.47
2018-07-24T05:27:59.536Z,30.59
2018-07-24T05:30:28.252Z,29.29
2018-07-24T05:32:57.146Z,28.70
2018-07-24T05:35:25.910Z,28.54
2018-07-24T05:37:54.628Z,28.23
2018-07-24T05:40:23.328Z,27.90
2018-07-24T05:42:52.077Z,28.96
2018-07-24T05:45:20.808Z,29.82
2018-07-24T05:47:49.725Z,29.38
2018-07-24T05:50:18.434Z,28.49
2018-07-24T05:52:47.234Z,28.21
2018-07-24T05:55:15.960Z,28.16
2018-07-24T05:57:44.664Z,27.73
2018-07-24T06:00:13.388Z,27.28
2018-07-24T06:02:42.091Z,26.77
2018-07-24T06:05:10.786Z,26.66
2018-07-24T06:07:39.507Z,26.48
2018-07-24T06:10:08.238Z,26.16
2018-07-24T06:12:36.932Z,26.00
2018-07-24T06:15:06.690Z,25.62
2018-07-24T06:17:35.931Z,25.29
2018-07-24T06:20:05.853Z,25.02
2018-07-24T06:22:34.906Z,24.87
2018-07-24T06:25:04.099Z,24.76
2018-07-24T06:27:33.382Z,24.64
2018-07-24T06:30:02.494Z,24.49
2018-07-24T06:32:31.822Z,24.19
2018-07-24T06:35:01.012Z,24.25
2018-07-24T06:37:30.192Z,24.44
2018-07-24T06:39:59.432Z,24.82
2018-07-24T06:42:28.589Z,25.26
2018-07-24T06:44:57.810Z,25.57
2018-07-24T06:47:26.890Z,25.74
2018-07-24T06:49:55.868Z,25.65
2018-07-24T06:52:25.242Z,25.76
2018-07-24T06:54:54.481Z,25.27
2018-07-24T06:57:23.201Z,25.42
2018-07-24T06:59:52.365Z,25.41
2018-07-24T07:02:21.567Z,25.41
2018-07-24T07:04:50.798Z,25.22
2018-07-24T07:07:19.984Z,25.11
2018-07-24T07:09:49.157Z,25.16
2018-07-24T07:12:18.369Z,25.26
2018-07-24T07:14:47.671Z,25.20
2018-07-24T07:17:16.904Z,24.96
2018-07-24T07:19:46.040Z,24.69
2018-07-24T07:22:15.265Z,24.90
2018-07-24T07:24:44.534Z,24.99
2018-07-24T07:27:13.741Z,24.80
2018-07-24T07:29:43.006Z,24.97
2018-07-24T07:32:12.195Z,25.26
2018-07-24T07:34:41.449Z,25.23
2018-07-24T07:37:10.646Z,25.52
2018-07-24T07:39:39.842Z,25.82
2018-07-24T07:42:09.626Z,26.06
2018-07-24T07:44:38.547Z,25.92
2018-07-24T07:47:07.254Z,25.94
2018-07-24T07:49:35.993Z,25.96
2018-07-24T07:52:04.771Z,25.80
2018-07-24T07:54:33.952Z,25.57
2018-07-24T07:57:02.677Z,25.43
2018-07-24T07:59:31.391Z,25.34
2018-07-24T08:02:00.106Z,24.94
2018-07-24T08:04:28.824Z,25.16
2018-07-24T08:06:57.545Z,25.16
2018-07-24T08:09:26.301Z,25.08
2018-07-24T08:11:54.985Z,24.97
2018-07-24T08:14:23.857Z,24.94
2018-07-24T08:16:52.598Z,24.95
2018-07-24T08:19:21.385Z,25.13
2018-07-24T08:21:50.071Z,25.44
2018-07-24T08:24:18.770Z,25.23
2018-07-24T08:26:47.453Z,25.33
2018-07-24T08:29:16.160Z,25.75
2018-07-24T08:31:45.149Z,26.18
2018-07-24T08:34:14.124Z,26.48
2018-07-24T08:36:42.966Z,26.81
2018-07-24T08:39:12.882Z,27.05
2018-07-24T08:41:42.354Z,27.55
2018-07-24T08:44:11.215Z,27.58
2018-07-24T08:46:40.021Z,27.97
2018-07-24T08:49:09.018Z,28.86
2018-07-24T08:51:37.853Z,28.92
2018-07-24T08:54:06.723Z,29.12
2018-07-24T08:56:35.465Z,28.55
2018-07-24T08:59:04.216Z,28.62
2018-07-24T09:01:32.995Z,28.92
2018-07-24T09:04:01.707Z,28.64
2018-07-24T09:06:30.417Z,28.35
2018-07-24T09:08:59.315Z,27.99
2018-07-24T09:11:31.082Z,27.83
2018-07-24T09:14:01.294Z,28.36
2018-07-24T09:16:30.108Z,28.61
2018-07-24T09:18:59.568Z,28.94
2018-07-24T09:21:28.653Z,30.75
2018-07-24T09:23:57.351Z,31.81
2018-07-24T09:26:26.107Z,31.40
2018-07-24T09:28:54.824Z,31.33
2018-07-24T09:31:23.569Z,31.85
2018-07-24T09:33:52.340Z,31.50
2018-07-24T09:36:21.110Z,30.70
2018-07-24T09:38:49.882Z,30.22
2018-07-24T09:41:18.690Z,30.13
2018-07-24T09:46:33.722Z,30.06
2018-07-24T09:49:02.457Z,30.49
2018-07-24T09:51:37.555Z,30.23
2018-07-24T09:54:06.718Z,30.00
2018-07-24T09:56:35.922Z,30.37
2018-07-24T09:59:05.196Z,30.80
2018-07-24T10:01:35.830Z,30.38
2018-07-24T10:04:05.335Z,30.34
2018-07-24T10:06:35.105Z,30.53
2018-07-24T10:09:05.028Z,30.43
2018-07-24T10:11:33.801Z,30.47
2018-07-24T10:14:02.545Z,30.85
2018-07-24T10:16:31.316Z,30.94
2018-07-24T10:19:00.134Z,31.05
2018-07-24T10:21:28.888Z,30.99
2018-07-24T10:23:57.591Z,31.90
2018-07-24T10:26:26.626Z,31.34
2018-07-24T10:28:55.979Z,31.60
2018-07-24T10:31:24.720Z,31.58
2018-07-24T10:33:53.437Z,31.86
2018-07-24T10:36:22.193Z,31.72
2018-07-24T10:38:50.958Z,31.62
2018-07-24T10:41:19.714Z,31.27
2018-07-24T10:43:48.449Z,31.43
2018-07-24T10:46:17.193Z,32.72
2018-07-24T10:48:46.045Z,34.00
2018-07-24T10:51:14.753Z,33.59
2018-07-24T10:53:43.542Z,34.25
2018-07-24T10:56:12.346Z,33.70
2018-07-24T10:58:41.082Z,33.27
2018-07-24T11:01:09.981Z,32.50
2018-07-24T11:03:38.733Z,33.32
2018-07-24T11:06:07.524Z,33.75
2018-07-24T11:08:36.261Z,33.02
2018-07-24T11:11:05.153Z,33.34
2018-07-24T11:13:33.816Z,33.26
2018-07-24T11:16:02.648Z,33.19
2018-07-24T11:18:31.472Z,33.15
2018-07-24T11:21:00.190Z,33.11
2018-07-24T11:23:28.915Z,34.37
2018-07-24T11:25:57.699Z,34.48
2018-07-24T11:28:26.415Z,34.38
2018-07-24T11:30:55.181Z,33.41
2018-07-24T11:33:23.965Z,33.34
2018-07-24T11:35:52.695Z,34.17
2018-07-24T11:38:21.506Z,34.52
2018-07-24T11:40:50.256Z,35.52
2018-07-24T11:43:19.021Z,36.75
2018-07-24T11:45:47.720Z,37.30
2018-07-24T11:48:16.419Z,36.83
2018-07-24T11:50:45.261Z,35.45
2018-07-24T11:53:13.981Z,35.51
2018-07-24T11:55:42.725Z,35.98
2018-07-24T11:58:11.430Z,36.75
2018-07-24T12:00:40.245Z,36.51
2018-07-24T12:03:08.984Z,35.62
2018-07-24T12:05:37.862Z,33.59
2018-07-24T12:08:06.659Z,32.36
2018-07-24T12:13:20.177Z,31.68
2018-07-24T12:15:48.900Z,31.44
2018-07-24T12:18:17.652Z,30.78
2018-07-24T12:20:46.428Z,30.62
2018-07-24T12:23:15.261Z,30.63
2018-07-24T12:25:44.141Z,30.65
2018-07-24T12:28:12.921Z,30.73
2018-07-24T12:30:41.693Z,30.46
2018-07-24T12:33:10.480Z,30.25
2018-07-24T12:35:39.173Z,30.18
2018-07-24T12:38:07.934Z,30.24
2018-07-24T12:40:36.783Z,30.34
2018-07-24T12:43:05.534Z,30.53
2018-07-24T12:45:34.394Z,30.80
2018-07-24T12:48:03.165Z,31.08
2018-07-24T12:50:31.905Z,31.00
2018-07-24T12:53:00.596Z,31.46
2018-07-24T12:55:29.297Z,31.79
2018-07-24T12:57:58.002Z,32.03
2018-07-24T13:00:26.716Z,32.03
2018-07-24T13:02:55.407Z,31.81
2018-07-24T13:05:24.134Z,32.03
2018-07-24T13:07:52.832Z,32.65
2018-07-24T13:10:21.521Z,32.97
2018-07-24T13:12:50.201Z,32.87
2018-07-24T13:15:18.924Z,31.89
2018-07-24T13:17:47.635Z,31.61
2018-07-24T13:20:16.330Z,31.68
2018-07-24T13:22:45.009Z,31.36
2018-07-24T13:25:13.785Z,30.94
2018-07-24T13:27:42.529Z,30.30
2018-07-24T13:30:11.419Z,30.25
2018-07-24T13:32:40.124Z,30.08
2018-07-24T13:35:08.844Z,30.11
2018-07-24T13:37:37.615Z,29.83
2018-07-24T13:40:06.366Z,29.95
2018-07-24T13:42:35.645Z,29.95
2018-07-24T13:45:05.030Z,29.49
2018-07-24T13:47:33.783Z,29.36
2018-07-24T13:50:02.662Z,29.39
2018-07-24T13:52:31.454Z,29.49
2018-07-24T13:55:00.220Z,29.58
2018-07-24T13:57:28.948Z,29.60
2018-07-24T13:59:57.689Z,29.50
2018-07-24T14:02:26.453Z,29.57
2018-07-24T14:04:55.311Z,29.51
2018-07-24T14:07:24.029Z,29.49
2018-07-24T14:09:52.789Z,29.40
2018-07-24T14:12:21.533Z,29.51
2018-07-24T14:14:50.274Z,29.52
2018-07-24T14:17:19.083Z,29.60
2018-07-24T14:19:47.865Z,29.72
2018-07-24T14:22:16.570Z,29.87
2018-07-24T14:24:45.501Z,29.85
2018-07-24T14:27:14.215Z,29.89
2018-07-24T14:29:43.036Z,29.98
2018-07-24T14:32:11.816Z,30.13
2018-07-24T14:34:40.577Z,30.25
2018-07-24T14:37:09.375Z,30.30
2018-07-24T14:39:38.140Z,30.27
2018-07-24T14:42:06.914Z,30.47
2018-07-24T14:44:35.661Z,30.23
2018-07-24T14:47:04.355Z,30.50
2018-07-24T14:49:33.203Z,30.80
2018-07-24T14:52:01.894Z,30.97
2018-07-24T14:54:30.640Z,30.88
2018-07-24T14:56:59.346Z,31.09
2018-07-24T14:59:28.362Z,31.25
2018-07-24T15:01:57.133Z,31.42
2018-07-24T15:04:25.886Z,31.48
2018-07-24T15:06:54.651Z,31.47
2018-07-24T15:09:25.704Z,31.15
2018-07-24T15:11:54.689Z,31.29
2018-07-24T15:14:23.543Z,31.11
2018-07-24T15:16:52.263Z,30.74
2018-07-24T15:19:20.972Z,30.69
2018-07-24T15:21:49.706Z,30.27
2018-07-24T15:24:18.418Z,29.97
2018-07-24T15:26:47.157Z,30.18
2018-07-24T15:29:15.904Z,29.87
2018-07-24T15:31:45.342Z,29.72
2018-07-24T15:34:14.154Z,29.75
2018-07-24T15:36:42.831Z,29.87
2018-07-24T15:39:13.541Z,29.78
2018-07-24T15:41:43.085Z,29.58
2018-07-24T15:44:11.849Z,29.48
2018-07-24T15:46:40.757Z,29.29
2018-07-24T15:49:09.602Z,29.25
2018-07-24T15:51:38.756Z,29.24
2018-07-24T15:54:07.567Z,29.24
2018-07-24T15:56:36.322Z,29.29
2018-07-24T15:59:05.168Z,29.30
2018-07-24T16:01:33.905Z,29.22
2018-07-24T16:04:02.892Z,29.10
2018-07-24T16:06:31.712Z,29.07
2018-07-24T16:09:00.531Z,29.11
2018-07-24T16:11:32.640Z,29.12
2018-07-24T16:14:05.307Z,29.07
2018-07-24T16:16:38.091Z,29.08
2018-07-24T16:19:10.948Z,28.99
2018-07-24T16:21:44.283Z,28.91
2018-07-24T16:24:17.731Z,28.89
2018-07-24T16:26:50.612Z,28.85
2018-07-24T16:29:24.300Z,28.76
2018-07-24T16:31:58.108Z,28.64
2018-07-24T16:34:31.300Z,28.46
2018-07-24T16:37:04.490Z,28.31
2018-07-24T16:39:37.435Z,28.22
2018-07-24T16:42:10.253Z,28.14
2018-07-24T16:44:43.619Z,27.99
2018-07-24T16:47:16.817Z,27.83
2018-07-24T16:49:49.582Z,27.17
2018-07-24T16:52:22.603Z,26.86
2018-07-24T16:54:56.013Z,25.99
2018-07-24T16:57:29.001Z,25.57
2018-07-24T17:00:02.133Z,23.11
2018-07-24T17:02:35.295Z,22.36
2018-07-24T17:05:09.152Z,22.03
2018-07-24T17:07:41.794Z,21.81
2018-07-24T17:10:15.437Z,21.62
2018-07-24T17:12:44.416Z,21.54
2018-07-24T17:15:13.262Z,21.49
2018-07-24T17:17:42.070Z,21.39
2018-07-24T17:20:11.040Z,21.39
2018-07-24T17:22:39.910Z,21.34
2018-07-24T17:25:08.721Z,21.39
2018-07-24T17:27:37.677Z,21.37
2018-07-24T17:30:06.504Z,21.41
2018-07-24T17:32:35.482Z,21.42
2018-07-24T17:35:04.354Z,21.38
2018-07-24T17:40:01.215Z,21.35
2018-07-24T17:42:30.102Z,21.40
2018-07-24T17:44:58.905Z,21.44
2018-07-24T17:47:27.789Z,21.49
2018-07-24T17:49:56.576Z,21.51
2018-07-24T17:52:25.727Z,21.54
2018-07-24T17:54:54.562Z,21.67
2018-07-24T17:57:23.377Z,21.63
2018-07-24T17:59:52.400Z,21.64
2018-07-24T18:02:21.215Z,21.65
2018-07-24T18:04:49.985Z,21.72
2018-07-24T18:07:18.798Z,21.67
2018-07-24T18:09:47.616Z,21.78
2018-07-24T18:12:16.497Z,21.85
2018-07-24T18:14:45.302Z,21.87
2018-07-24T18:17:14.105Z,21.89
2018-07-24T18:19:42.837Z,21.93
2018-07-24T18:22:11.695Z,21.91
2018-07-24T18:24:40.552Z,21.91
2018-07-24T18:27:09.390Z,21.87
2018-07-24T18:29:38.408Z,21.90
2018-07-24T18:32:07.309Z,21.91
2018-07-24T18:34:36.097Z,21.91
2018-07-24T18:37:04.924Z,21.90
2018-07-24T18:39:33.720Z,21.84
2018-07-24T18:42:02.647Z,21.84
2018-07-24T18:44:31.518Z,21.87
2018-07-24T18:47:00.532Z,21.86
2018-07-24T18:49:29.324Z,21.85
2018-07-24T18:51:58.173Z,21.76
2018-07-24T18:54:26.977Z,21.68
2018-07-24T18:56:55.892Z,21.66
2018-07-24T18:59:24.805Z,21.80
2018-07-24T19:01:53.852Z,21.80
2018-07-24T19:04:22.789Z,21.90
2018-07-24T19:06:51.589Z,21.85
2018-07-24T19:09:20.360Z,21.84
2018-07-24T19:11:49.158Z,21.98
2018-07-24T19:14:18.061Z,21.88
2018-07-24T19:16:46.815Z,21.93
2018-07-24T19:19:15.659Z,21.79
2018-07-24T19:21:44.486Z,21.64
2018-07-24T19:24:13.419Z,21.61
2018-07-24T19:26:42.284Z,21.66
2018-07-24T19:29:11.141Z,21.72
2018-07-24T19:31:39.912Z,21.81
2018-07-24T19:34:08.706Z,21.89
2018-07-24T19:36:37.413Z,21.90
2018-07-24T19:39:09.449Z,21.83
2018-07-24T19:41:38.319Z,21.80
2018-07-24T19:44:07.273Z,21.76
2018-07-24T19:46:36.007Z,21.81
2018-07-24T19:49:05.234Z,21.78
2018-07-24T19:51:34.137Z,21.81
2018-07-24T19:54:03.425Z,21.94
2018-07-24T19:56:32.784Z,21.89
2018-07-24T19:59:01.928Z,21.85
2018-07-24T20:01:30.831Z,21.90
2018-07-24T20:03:59.736Z,21.92
2018-07-24T20:06:28.479Z,21.93
2018-07-24T20:08:57.285Z,21.95
2018-07-24T20:11:26.181Z,21.91
2018-07-24T20:13:54.956Z,21.85
2018-07-24T20:16:24.029Z,21.76
2018-07-24T20:18:52.793Z,21.78
2018-07-24T20:21:21.644Z,21.84
2018-07-24T20:23:50.431Z,21.83
2018-07-24T20:26:19.200Z,21.90
2018-07-24T20:28:47.956Z,21.92
2018-07-24T20:31:16.744Z,21.81
2018-07-24T20:33:45.475Z,21.71
2018-07-24T20:36:14.237Z,21.45
2018-07-24T20:38:43.084Z,21.46
2018-07-24T20:41:11.802Z,21.49
2018-07-24T20:43:40.596Z,21.55
2018-07-24T20:46:09.396Z,21.47
2018-07-24T20:48:38.274Z,21.44
2018-07-24T20:51:07.314Z,21.41
2018-07-24T20:53:36.309Z,21.32
2018-07-24T20:58:32.841Z,21.27
2018-07-24T21:01:01.624Z,21.33
2018-07-24T21:03:30.418Z,21.43
2018-07-24T21:05:59.212Z,21.41
2018-07-24T21:08:28.004Z,21.28
2018-07-24T21:10:56.764Z,21.10
2018-07-24T21:13:25.525Z,20.99
2018-07-24T21:15:54.233Z,21.12
2018-07-24T21:18:23.041Z,21.09
2018-07-24T21:20:51.874Z,21.13
2018-07-24T21:23:20.564Z,21.05
2018-07-24T21:25:49.304Z,20.94
2018-07-24T21:28:18.055Z,20.86
2018-07-24T21:30:46.844Z,20.74
2018-07-24T21:33:15.660Z,20.62
2018-07-24T21:35:44.526Z,20.61
2018-07-24T21:38:13.324Z,20.59
2018-07-24T21:40:42.965Z,20.65
2018-07-24T21:43:11.708Z,20.78
2018-07-24T21:45:40.965Z,20.77
2018-07-24T21:48:09.706Z,20.72
2018-07-24T21:50:38.437Z,20.77
2018-07-24T21:53:06.933Z,20.94
2018-07-24T21:55:35.701Z,20.90
2018-07-24T21:58:04.584Z,20.94
2018-07-24T22:00:36.669Z,21.00
2018-07-24T22:03:07.297Z,21.06
2018-07-24T22:05:36.150Z,20.94
2018-07-24T22:08:04.908Z,20.82
2018-07-24T22:10:33.649Z,20.75
2018-07-24T22:13:02.388Z,20.75
2018-07-24T22:15:31.106Z,20.67
2018-07-24T22:17:59.819Z,20.66
2018-07-24T22:20:28.548Z,20.71
2018-07-24T22:22:57.262Z,20.69
2018-07-24T22:25:25.989Z,20.71
2018-07-24T22:27:54.970Z,20.73
2018-07-24T22:30:23.695Z,20.63
2018-07-24T22:32:52.414Z,20.64
2018-07-24T22:35:21.142Z,20.65
2018-07-24T22:37:49.886Z,20.52
2018-07-24T22:40:18.689Z,20.45
2018-07-24T22:42:47.414Z,20.50
2018-07-24T22:45:16.121Z,20.62
2018-07-24T22:47:44.923Z,20.52
2018-07-24T22:50:13.836Z,20.46
2018-07-24T22:52:42.573Z,20.33
2018-07-24T22:55:11.289Z,20.32
2018-07-24T22:57:40.101Z,20.38
2018-07-24T23:00:09.029Z,20.37
2018-07-24T23:02:37.716Z,20.49
2018-07-24T23:05:06.550Z,20.56
2018-07-24T23:07:35.256Z,20.50
2018-07-24T23:10:04.234Z,20.53
2018-07-24T23:12:33.036Z,20.58
2018-07-24T23:15:01.773Z,20.63
2018-07-24T23:17:30.477Z,20.63
2018-07-24T23:19:59.185Z,20.70
2018-07-24T23:22:27.884Z,20.66
2018-07-24T23:24:56.602Z,20.80
2018-07-24T23:27:25.337Z,20.96
2018-07-24T23:29:54.257Z,21.06
2018-07-24T23:32:22.973Z,21.05
2018-07-24T23:34:51.701Z,21.04
2018-07-24T23:37:20.519Z,21.00
2018-07-24T23:39:49.242Z,20.89
2018-07-24T23:42:17.958Z,20.81
2018-07-24T23:44:46.778Z,20.87
2018-07-24T23:47:15.481Z,20.92
2018-07-24T23:49:44.219Z,20.78
2018-07-24T23:52:12.963Z,20.76
2018-07-24T23:54:41.693Z,20.67
2018-07-24T23:57:10.404Z,20.72
2018-07-24T23:59:39.134Z,20.76
